Olivia, Texas
Current Conditions -  °F | °C
As of 4:35 AM on Sunday 21 Dec 2014 (Local Time) from KPKV Reporting Station
Overcast Overcast  
Wind Chill: 52°   Ceiling: 800
Heat Index: 52°   Visibility: 7mi
Dew Point: 51°   Wind: 7mph
Humidity: 95%   Direction: 10°N
Pressure: 30.11"   Gusts: NA
Location:  28.5342°N, 96.663°W
Report Text: KPKV 211035Z AUTO 01006KT 7SM OVC008 11/11 A3011 RMK AO2 T01130106
Loading
Personal Weather Stations






























Interactive Weather Map New forecast layout! Learn more

10-Day Weather Forecast

Advertisements
Track Severe Weather on mobile